createdAt,value
2022-09-12T00:00:07.808Z,1.15
2022-09-12T00:02:39.257Z,1.10
2022-09-12T00:05:08.718Z,0.90
2022-09-12T00:07:36.479Z,1.20
2022-09-12T00:10:04.318Z,1.10
2022-09-12T00:12:31.928Z,1.10
2022-09-12T00:15:00.483Z,1.27
2022-09-12T00:17:28.079Z,1.23
2022-09-12T00:19:56.943Z,1.08
2022-09-12T00:22:25.866Z,1.50
2022-09-12T00:24:53.471Z,1.00
2022-09-12T00:27:21.058Z,1.25
2022-09-12T00:29:48.666Z,1.10
2022-09-12T00:32:16.478Z,1.20
2022-09-12T00:34:44.104Z,1.30
2022-09-12T00:37:11.944Z,1.08
2022-09-12T00:39:40.917Z,1.20
2022-09-12T00:42:10.404Z,1.33
2022-09-12T00:44:44.379Z,1.42
2022-09-12T00:47:14.340Z,1.30
2022-09-12T00:49:45.003Z,0.90
2022-09-12T00:52:14.250Z,1.20
2022-09-12T00:54:45.019Z,1.20
2022-09-12T00:57:14.786Z,1.17
2022-09-12T00:59:44.523Z,1.00
2022-09-12T01:02:12.581Z,1.15
2022-09-12T01:04:42.127Z,1.15
2022-09-12T01:07:28.592Z,1.00
2022-09-12T01:09:57.476Z,1.00
2022-09-12T01:12:25.510Z,1.30
2022-09-12T01:14:53.178Z,1.17
2022-09-12T01:17:20.817Z,0.93
2022-09-12T01:19:58.731Z,1.10
2022-09-12T01:22:37.611Z,1.02
2022-09-12T01:25:12.527Z,1.30
2022-09-12T01:27:44.177Z,1.20
2022-09-12T01:30:26.654Z,1.20
2022-09-12T01:33:05.469Z,1.20
2022-09-12T01:35:35.890Z,1.10
2022-09-12T01:38:10.296Z,1.20
2022-09-12T01:40:42.383Z,1.27
2022-09-12T01:43:15.976Z,1.08
2022-09-12T01:45:46.141Z,1.33
2022-09-12T01:48:17.156Z,1.30
2022-09-12T01:50:47.509Z,1.23
2022-09-12T01:53:17.916Z,1.05
2022-09-12T01:55:47.576Z,1.23
2022-09-12T01:58:17.142Z,1.30
2022-09-12T02:00:48.044Z,1.20
2022-09-12T02:03:20.031Z,1.20
2022-09-12T02:05:52.186Z,1.00
2022-09-12T02:08:21.659Z,1.30
2022-09-12T02:10:52.039Z,1.05
2022-09-12T02:13:21.987Z,1.17
2022-09-12T02:15:51.152Z,1.00
2022-09-12T02:18:21.157Z,1.17
2022-09-12T02:20:49.933Z,1.13
2022-09-12T02:23:20.408Z,0.90
2022-09-12T02:25:49.586Z,1.30
2022-09-12T02:28:19.027Z,1.08
2022-09-12T02:30:51.482Z,1.00
2022-09-12T02:33:24.148Z,1.05
2022-09-12T02:35:54.135Z,1.20
2022-09-12T02:38:25.986Z,1.17
2022-09-12T02:40:53.643Z,1.02
2022-09-12T02:43:21.646Z,1.10
2022-09-12T02:45:49.454Z,1.20
2022-09-12T02:48:20.194Z,1.08
2022-09-12T02:50:49.280Z,1.20
2022-09-12T02:53:17.338Z,1.30
2022-09-12T02:55:45.198Z,0.90
2022-09-12T02:58:14.148Z,1.00
2022-09-12T03:00:46.468Z,1.20
2022-09-12T03:03:21.983Z,1.17
2022-09-12T03:05:54.499Z,1.05
2022-09-12T03:08:29.376Z,1.20
2022-09-12T03:11:07.860Z,1.00
2022-09-12T03:13:40.043Z,0.93
2022-09-12T03:16:13.222Z,1.08
2022-09-12T03:18:45.257Z,1.20
2022-09-12T03:21:19.066Z,1.10
2022-09-12T03:23:52.208Z,1.20
2022-09-12T03:26:22.614Z,1.30
2022-09-12T03:28:50.609Z,1.20
2022-09-12T03:31:19.269Z,1.08
2022-09-12T03:33:46.933Z,1.40
2022-09-12T03:36:17.911Z,1.48
2022-09-12T03:38:45.706Z,1.40
2022-09-12T03:41:13.453Z,1.30
2022-09-12T03:43:41.071Z,1.30
2022-09-12T03:46:08.881Z,1.10
2022-09-12T03:48:36.571Z,1.33
2022-09-12T03:51:04.771Z,1.00
2022-09-12T03:53:33.721Z,1.05
2022-09-12T03:56:01.380Z,1.15
2022-09-12T03:58:31.693Z,1.27
2022-09-12T04:00:59.879Z,1.00
2022-09-12T04:03:27.510Z,1.10
2022-09-12T04:05:55.134Z,1.20
2022-09-12T04:08:22.837Z,0.93
2022-09-12T04:10:51.901Z,1.20
2022-09-12T04:13:19.462Z,1.23
2022-09-12T04:15:56.476Z,1.30
2022-09-12T04:18:24.309Z,1.40
2022-09-12T04:20:51.910Z,0.93
2022-09-12T04:23:19.509Z,1.00
2022-09-12T04:25:55.393Z,1.10
2022-09-12T04:28:23.181Z,1.13
2022-09-12T04:30:50.947Z,0.80
2022-09-12T04:33:18.908Z,0.80
2022-09-12T04:35:47.087Z,0.90
2022-09-12T04:38:14.964Z,1.00
2022-09-12T04:40:42.636Z,0.93
2022-09-12T04:43:14.541Z,0.95
2022-09-12T04:45:42.387Z,1.00
2022-09-12T04:48:10.039Z,1.00
2022-09-12T04:50:37.621Z,1.10
2022-09-12T04:53:05.441Z,1.15
2022-09-12T04:55:35.457Z,1.17
2022-09-12T04:58:03.083Z,1.17
2022-09-12T05:00:31.979Z,1.30
2022-09-12T05:03:00.186Z,1.10
2022-09-12T05:05:27.796Z,1.05
2022-09-12T05:07:55.513Z,1.00
2022-09-12T05:10:23.803Z,1.20
2022-09-12T05:12:51.515Z,1.02
2022-09-12T05:15:20.093Z,1.40
2022-09-12T05:17:49.339Z,1.05
2022-09-12T05:20:17.314Z,1.05
2022-09-12T05:22:44.934Z,1.30
2022-09-12T05:25:12.531Z,0.88
2022-09-12T05:27:40.084Z,0.70
2022-09-12T05:30:08.180Z,0.93
2022-09-12T05:32:35.844Z,0.90
2022-09-12T05:35:04.946Z,0.70
2022-09-12T05:37:32.564Z,0.93
2022-09-12T05:40:00.272Z,1.10
2022-09-12T05:42:30.440Z,1.00
2022-09-12T05:44:58.571Z,1.17
2022-09-12T05:47:26.139Z,1.10
2022-09-12T05:49:54.326Z,0.90
2022-09-12T05:52:23.235Z,1.00
2022-09-12T05:54:50.869Z,1.13
2022-09-12T05:57:18.503Z,0.95
2022-09-12T05:59:46.435Z,1.00
2022-09-12T06:02:14.336Z,1.08
2022-09-12T06:04:41.931Z,1.08
2022-09-12T06:07:09.768Z,1.25
2022-09-12T06:09:38.689Z,0.93
2022-09-12T06:12:07.614Z,0.85
2022-09-12T06:14:35.208Z,1.27
2022-09-12T06:17:02.883Z,1.00
2022-09-12T06:19:30.731Z,1.35
2022-09-12T06:21:58.743Z,1.27
2022-09-12T06:24:26.361Z,1.20
2022-09-12T06:26:55.324Z,1.20
2022-09-12T06:29:23.000Z,1.05
2022-09-12T06:31:50.675Z,0.90
2022-09-12T06:37:03.995Z,1.30
2022-09-12T06:39:32.528Z,1.30
2022-09-12T06:42:01.831Z,1.08
2022-09-12T06:44:34.906Z,1.13
2022-09-12T06:47:02.518Z,0.82
2022-09-12T06:49:30.944Z,0.82
2022-09-12T06:51:58.641Z,1.10
2022-09-12T06:54:26.458Z,1.00
2022-09-12T06:56:54.041Z,0.80
2022-09-12T06:59:22.997Z,1.10
2022-09-12T07:01:50.790Z,1.10
2022-09-12T07:04:18.474Z,0.98
2022-09-12T07:06:46.065Z,0.90
2022-09-12T07:09:16.261Z,0.88
2022-09-12T07:11:44.588Z,0.80
2022-09-12T07:14:13.718Z,0.80
2022-09-12T07:16:42.923Z,0.80
2022-09-12T07:19:11.895Z,0.73
2022-09-12T07:21:41.076Z,0.63
2022-09-12T07:24:09.894Z,0.70
2022-09-12T07:26:38.003Z,0.60
2022-09-12T07:29:34.846Z,0.70
2022-09-12T07:31:55.025Z,0.38
2022-09-12T07:34:22.682Z,0.68
2022-09-12T07:36:50.383Z,0.60
2022-09-12T07:39:18.163Z,0.60
2022-09-12T07:41:45.764Z,0.60
2022-09-12T07:44:13.349Z,0.50
2022-09-12T07:46:40.953Z,0.40
2022-09-12T07:49:09.821Z,0.60
2022-09-12T07:51:37.702Z,0.43
2022-09-12T07:54:08.996Z,0.70
2022-09-12T07:56:39.119Z,0.63
2022-09-12T07:59:07.246Z,0.70
2022-09-12T08:01:34.859Z,0.73
2022-09-12T08:04:03.402Z,0.50
2022-09-12T08:06:33.760Z,0.50
2022-09-12T08:09:01.909Z,0.57
2022-09-12T08:11:30.513Z,0.60
2022-09-12T08:13:58.652Z,0.60
2022-09-12T08:16:27.257Z,0.35
2022-09-12T08:18:54.895Z,0.40
2022-09-12T08:21:24.631Z,0.50
2022-09-12T08:23:54.944Z,0.43
2022-09-12T08:26:23.359Z,0.60
2022-09-12T08:28:51.738Z,0.50
2022-09-12T08:31:20.823Z,0.38
2022-09-12T08:33:48.845Z,0.68
2022-09-12T08:36:17.259Z,0.50
2022-09-12T08:38:45.570Z,0.50
2022-09-12T08:41:19.832Z,0.40
2022-09-12T08:43:56.710Z,0.65
2022-09-12T08:46:29.140Z,0.57
2022-09-12T08:48:57.946Z,0.50
2022-09-12T08:51:26.117Z,0.50
2022-09-12T08:53:56.388Z,0.55
2022-09-12T08:56:31.452Z,0.60
2022-09-12T08:58:59.552Z,0.60
2022-09-12T09:01:31.727Z,0.60
2022-09-12T09:04:09.649Z,0.50
2022-09-12T09:06:47.108Z,0.60
2022-09-12T09:09:16.768Z,0.60
2022-09-12T09:11:53.177Z,0.57
2022-09-12T09:14:37.586Z,0.50
2022-09-12T09:17:09.989Z,0.50
2022-09-12T09:19:38.908Z,0.40
2022-09-12T09:22:09.022Z,0.50
2022-09-12T09:24:39.281Z,0.60
2022-09-12T09:27:30.226Z,0.40
2022-09-12T09:29:59.572Z,0.55
2022-09-12T09:32:28.238Z,0.50
2022-09-12T09:34:56.184Z,0.55
2022-09-12T09:37:30.089Z,0.50
2022-09-12T09:40:02.640Z,0.50
2022-09-12T09:42:37.905Z,0.50
2022-09-12T09:45:13.156Z,0.60
2022-09-12T09:47:40.741Z,0.50
2022-09-12T09:50:14.099Z,0.60
2022-09-12T09:52:42.057Z,0.65
2022-09-12T09:55:13.158Z,0.80
2022-09-12T09:57:44.594Z,0.65
2022-09-12T10:00:24.031Z,0.70
2022-09-12T10:03:01.139Z,0.60
2022-09-12T10:05:29.209Z,0.65
2022-09-12T10:07:57.149Z,0.60
2022-09-12T10:10:25.582Z,0.82
2022-09-12T10:13:06.832Z,0.80
2022-09-12T10:15:34.727Z,0.57
2022-09-12T10:18:03.265Z,0.70
2022-09-12T10:20:32.527Z,0.90
2022-09-12T10:23:00.997Z,1.10
2022-09-12T10:25:29.134Z,0.55
2022-09-12T10:28:00.012Z,0.60
2022-09-12T10:30:29.116Z,0.55
2022-09-12T10:32:58.783Z,0.55
2022-09-12T10:35:30.403Z,0.60
2022-09-12T10:37:59.428Z,0.55
2022-09-12T10:40:28.415Z,1.00
2022-09-12T10:43:15.006Z,0.63
2022-09-12T10:45:44.009Z,0.50
2022-09-12T10:48:25.263Z,0.65
2022-09-12T10:50:53.166Z,0.70
2022-09-12T10:53:21.678Z,0.70
2022-09-12T10:55:56.849Z,0.80
2022-09-12T10:58:33.796Z,0.60
2022-09-12T11:01:07.004Z,0.70
2022-09-12T11:03:41.524Z,0.73
2022-09-12T11:06:11.490Z,0.52
2022-09-12T11:08:46.349Z,0.70
2022-09-12T11:11:23.246Z,0.60
2022-09-12T11:13:55.370Z,0.32
2022-09-12T11:16:28.211Z,0.40
2022-09-12T11:19:04.912Z,0.40
2022-09-12T11:21:39.533Z,0.50
2022-09-12T11:24:16.383Z,0.40
2022-09-12T11:26:52.013Z,0.60
2022-09-12T11:29:26.481Z,0.50
2022-09-12T11:32:02.505Z,0.40
2022-09-12T11:34:33.336Z,0.40
2022-09-12T11:37:10.683Z,0.38
2022-09-12T11:39:40.313Z,0.50
2022-09-12T11:42:12.429Z,0.40
2022-09-12T11:44:41.404Z,0.65
2022-09-12T11:47:12.652Z,0.40
2022-09-12T11:49:42.194Z,0.45
2022-09-12T11:52:14.211Z,0.32
2022-09-12T11:54:44.682Z,0.50
2022-09-12T11:57:15.861Z,0.43
2022-09-12T11:59:45.303Z,0.50
2022-09-12T12:02:16.037Z,0.70
2022-09-12T12:04:50.383Z,0.75
2022-09-12T12:07:19.303Z,0.60
2022-09-12T12:09:48.785Z,0.70
2022-09-12T12:12:17.939Z,0.50
2022-09-12T12:14:46.837Z,0.77
2022-09-12T12:17:17.117Z,0.45
2022-09-12T12:19:46.252Z,0.50
2022-09-12T12:22:19.078Z,0.50
2022-09-12T12:24:57.814Z,0.70
2022-09-12T12:27:26.485Z,0.70
2022-09-12T12:29:54.164Z,0.52
2022-09-12T12:32:25.134Z,0.70
2022-09-12T12:35:02.493Z,0.90
2022-09-12T12:37:40.257Z,0.80
2022-09-12T12:40:10.474Z,0.80
2022-09-12T12:42:49.782Z,0.55
2022-09-12T12:45:32.551Z,0.90
2022-09-12T12:48:06.300Z,0.60
2022-09-12T12:50:35.867Z,0.60
2022-09-12T12:53:04.210Z,0.70
2022-09-12T12:55:35.199Z,0.40
2022-09-12T12:58:04.496Z,0.68
2022-09-12T13:00:34.236Z,0.65
2022-09-12T13:03:06.890Z,0.40
2022-09-12T13:05:40.146Z,0.60
2022-09-12T13:08:10.036Z,0.50
2022-09-12T13:10:37.887Z,0.40
2022-09-12T13:13:06.794Z,0.60
2022-09-12T13:15:45.358Z,0.52
2022-09-12T13:18:15.641Z,0.63
2022-09-12T13:20:47.909Z,0.50
2022-09-12T13:23:22.820Z,0.50
2022-09-12T13:25:54.071Z,0.57
2022-09-12T13:28:21.780Z,0.70
2022-09-12T13:30:55.945Z,0.60
2022-09-12T13:33:30.937Z,0.70
2022-09-12T13:36:08.576Z,0.77
2022-09-12T13:38:42.400Z,0.70
2022-09-12T13:41:19.334Z,0.60
2022-09-12T13:43:47.720Z,0.75
2022-09-12T13:46:17.340Z,1.00
2022-09-12T13:48:46.769Z,0.65
2022-09-12T13:51:22.203Z,0.80
2022-09-12T13:53:50.668Z,0.70
2022-09-12T13:56:19.029Z,0.60
2022-09-12T13:58:56.518Z,0.90
2022-09-12T14:01:24.650Z,0.60
2022-09-12T14:04:03.603Z,0.65
2022-09-12T14:06:35.939Z,0.80
2022-09-12T14:09:25.270Z,0.77
2022-09-12T14:11:53.734Z,0.70
2022-09-12T14:14:27.704Z,0.70
2022-09-12T14:16:55.304Z,0.63
2022-09-12T14:19:25.985Z,0.60
2022-09-12T14:21:54.244Z,0.90
2022-09-12T14:24:24.203Z,0.73
2022-09-12T14:26:53.248Z,0.50
2022-09-12T14:29:22.416Z,0.70
2022-09-12T14:32:01.350Z,0.52
2022-09-12T14:34:30.859Z,0.50
2022-09-12T14:36:59.059Z,0.57
2022-09-12T14:39:29.497Z,0.50
2022-09-12T14:42:06.939Z,0.50
2022-09-12T14:44:35.161Z,0.60
2022-09-12T14:47:12.421Z,0.60
2022-09-12T14:49:41.894Z,0.70
2022-09-12T14:52:22.253Z,0.47
2022-09-12T14:54:57.038Z,0.80
2022-09-12T14:57:34.044Z,0.65
2022-09-12T15:00:17.775Z,0.60
2022-09-12T15:02:45.854Z,0.73
2022-09-12T15:05:19.211Z,0.93
2022-09-12T15:07:53.671Z,0.65
2022-09-12T15:10:25.201Z,0.85
2022-09-12T15:13:05.112Z,0.80
2022-09-12T15:15:33.284Z,0.70
2022-09-12T15:18:04.597Z,0.60
2022-09-12T15:20:36.968Z,0.80
2022-09-12T15:23:05.121Z,0.50
2022-09-12T15:25:33.025Z,0.70
2022-09-12T15:28:01.767Z,0.60
2022-09-12T15:30:29.904Z,0.73
2022-09-12T15:32:59.938Z,0.70
2022-09-12T15:35:29.216Z,0.52
2022-09-12T15:37:58.273Z,0.52
2022-09-12T15:40:26.790Z,0.65
2022-09-12T15:42:54.372Z,1.02
2022-09-12T15:45:25.791Z,0.60
2022-09-12T15:47:53.452Z,0.68
2022-09-12T15:50:21.132Z,0.60
2022-09-12T15:52:48.797Z,0.60
2022-09-12T15:55:18.411Z,0.88
2022-09-12T15:57:46.601Z,0.63
2022-09-12T16:00:14.566Z,0.90
2022-09-12T16:02:42.260Z,0.63
2022-09-12T16:05:14.206Z,0.90
2022-09-12T16:07:41.806Z,0.60
2022-09-12T16:10:11.076Z,0.70
2022-09-12T16:12:40.031Z,0.90
2022-09-12T16:15:07.936Z,0.80
2022-09-12T16:17:35.666Z,0.60
2022-09-12T16:20:03.329Z,0.88
2022-09-12T16:22:31.166Z,0.90
2022-09-12T16:24:58.756Z,0.70
2022-09-12T16:27:26.498Z,0.80
2022-09-12T16:29:55.469Z,0.80
2022-09-12T16:32:23.121Z,0.80
2022-09-12T16:34:51.264Z,1.10
2022-09-12T16:37:18.879Z,1.00
2022-09-12T16:39:48.852Z,0.95
2022-09-12T16:42:17.827Z,0.90
2022-09-12T16:44:45.641Z,0.82
2022-09-12T16:47:14.934Z,0.93
2022-09-12T16:49:42.581Z,0.88
2022-09-12T16:52:11.360Z,0.90
2022-09-12T16:54:38.976Z,0.90
2022-09-12T16:57:06.656Z,1.10
2022-09-12T16:59:34.456Z,0.80
2022-09-12T17:02:02.148Z,0.85
2022-09-12T17:04:31.047Z,1.08
2022-09-12T17:06:59.381Z,0.80
2022-09-12T17:09:28.155Z,0.80
2022-09-12T17:11:56.447Z,0.70
2022-09-12T17:14:25.446Z,0.95
2022-09-12T17:16:53.429Z,0.77
2022-09-12T17:19:22.227Z,0.93
2022-09-12T17:21:51.220Z,0.70
2022-09-12T17:24:37.210Z,0.82
2022-09-12T17:27:04.895Z,0.82
2022-09-12T17:29:34.321Z,0.80
2022-09-12T17:32:02.198Z,0.80
2022-09-12T17:34:47.437Z,0.80
2022-09-12T17:37:17.632Z,0.70
2022-09-12T17:39:45.324Z,0.77
2022-09-12T17:42:12.981Z,0.80
2022-09-12T17:44:40.561Z,1.00
2022-09-12T17:47:08.218Z,0.88
2022-09-12T17:49:36.813Z,0.90
2022-09-12T17:52:04.479Z,0.80
2022-09-12T17:54:33.310Z,0.85
2022-09-12T17:57:00.893Z,1.00
2022-09-12T17:59:28.671Z,0.90
2022-09-12T18:02:05.594Z,0.88
2022-09-12T18:04:33.341Z,0.80
2022-09-12T18:07:01.342Z,1.08
2022-09-12T18:09:29.097Z,0.80
2022-09-12T18:11:58.458Z,0.80
2022-09-12T18:14:27.630Z,0.70
2022-09-12T18:16:56.985Z,0.80
2022-09-12T18:19:24.974Z,0.90
2022-09-12T18:21:52.576Z,0.90
2022-09-12T18:24:20.426Z,1.00
2022-09-12T18:26:48.155Z,0.98
2022-09-12T18:29:17.289Z,1.20
2022-09-12T18:31:46.616Z,0.80
2022-09-12T18:34:14.681Z,0.90
2022-09-12T18:36:42.493Z,0.80
2022-09-12T18:39:10.560Z,0.70
2022-09-12T18:41:38.930Z,0.88
2022-09-12T18:44:06.802Z,0.80
2022-09-12T18:46:36.149Z,0.80
2022-09-12T18:49:04.520Z,0.98
2022-09-12T18:51:34.646Z,0.98
2022-09-12T18:54:03.002Z,0.80
2022-09-12T18:56:32.921Z,1.00
2022-09-12T18:59:01.897Z,0.90
2022-09-12T19:01:30.234Z,0.70
2022-09-12T19:04:00.792Z,0.93
2022-09-12T19:06:29.869Z,0.80
2022-09-12T19:08:58.705Z,0.70
2022-09-12T19:11:27.058Z,0.75
2022-09-12T19:13:54.876Z,1.00
2022-09-12T19:16:41.293Z,0.90
2022-09-12T19:19:10.368Z,0.80
2022-09-12T19:21:38.334Z,1.10
2022-09-12T19:24:07.212Z,1.10
2022-09-12T19:26:35.697Z,0.90
2022-09-12T19:29:04.377Z,0.90
2022-09-12T19:31:32.168Z,1.17
2022-09-12T19:34:00.714Z,1.05
2022-09-12T19:36:46.634Z,1.00
2022-09-12T19:39:15.701Z,0.95
2022-09-12T19:41:43.525Z,0.82
2022-09-12T19:44:11.447Z,0.70
2022-09-12T19:46:39.300Z,1.00
2022-09-12T19:49:07.198Z,0.85
2022-09-12T19:51:36.075Z,1.15
2022-09-12T19:54:03.871Z,1.00
2022-09-12T19:56:31.487Z,1.10
2022-09-12T19:58:59.188Z,1.20
2022-09-12T20:01:28.744Z,0.90
2022-09-12T20:03:56.952Z,1.00
2022-09-12T20:06:25.000Z,1.20
2022-09-12T20:08:54.079Z,1.17
2022-09-12T20:11:23.546Z,1.20
2022-09-12T20:13:51.912Z,1.15
2022-09-12T20:16:22.444Z,1.10
2022-09-12T20:18:53.849Z,1.33
2022-09-12T20:21:24.803Z,1.17
2022-09-12T20:23:53.731Z,1.20
2022-09-12T20:26:23.467Z,1.23
2022-09-12T20:28:51.786Z,1.08
2022-09-12T20:31:19.489Z,1.35
2022-09-12T20:33:51.609Z,1.25
2022-09-12T20:36:20.809Z,1.10
2022-09-12T20:38:49.032Z,1.40
2022-09-12T20:41:18.534Z,1.00
2022-09-12T20:43:46.408Z,1.00
2022-09-12T20:46:15.954Z,1.05
2022-09-12T20:48:46.831Z,1.30
2022-09-12T20:51:14.861Z,1.20
2022-09-12T20:53:42.439Z,1.20
2022-09-12T20:56:10.050Z,1.10
2022-09-12T20:58:43.566Z,1.00
2022-09-12T21:01:12.447Z,1.20
2022-09-12T21:03:40.424Z,1.25
2022-09-12T21:06:08.943Z,1.45
2022-09-12T21:08:37.065Z,1.20
2022-09-12T21:11:04.878Z,1.00
2022-09-12T21:13:32.608Z,1.30
2022-09-12T21:16:01.975Z,1.30
2022-09-12T21:18:29.674Z,1.30
2022-09-12T21:20:57.642Z,1.10
2022-09-12T21:23:26.004Z,1.02
2022-09-12T21:25:53.934Z,1.42
2022-09-12T21:28:22.079Z,1.30
2022-09-12T21:30:50.698Z,1.20
2022-09-12T21:33:20.681Z,1.20
2022-09-12T21:35:49.025Z,1.10
2022-09-12T21:38:16.905Z,1.17
2022-09-12T21:40:44.522Z,1.20
2022-09-12T21:43:13.136Z,1.25
2022-09-12T21:45:41.290Z,1.20
2022-09-12T21:48:08.881Z,1.10
2022-09-12T21:50:37.825Z,1.10
2022-09-12T21:53:05.406Z,1.33
2022-09-12T21:55:33.079Z,1.27
2022-09-12T21:58:00.735Z,1.13
2022-09-12T22:00:28.302Z,1.40
2022-09-12T22:02:56.195Z,1.00
2022-09-12T22:05:24.532Z,1.25
2022-09-12T22:07:53.545Z,1.40
2022-09-12T22:10:21.126Z,1.13
2022-09-12T22:12:48.811Z,1.05
2022-09-12T22:15:40.052Z,1.10
2022-09-12T22:18:04.249Z,1.10
2022-09-12T22:20:31.861Z,1.30
2022-09-12T22:23:09.399Z,1.30
2022-09-12T22:25:37.109Z,1.33
2022-09-12T22:28:04.729Z,1.20
2022-09-12T22:30:32.419Z,1.27
2022-09-12T22:32:59.982Z,1.10
2022-09-12T22:35:27.564Z,1.10
2022-09-12T22:37:55.224Z,1.38
2022-09-12T22:40:24.230Z,1.30
2022-09-12T22:42:52.417Z,1.10
2022-09-12T22:45:21.049Z,1.05
2022-09-12T22:47:48.673Z,1.17
2022-09-12T22:50:16.391Z,1.42
2022-09-12T22:52:44.382Z,1.20
2022-09-12T22:55:12.405Z,1.10
2022-09-12T22:57:41.239Z,1.00
2022-09-12T23:00:10.381Z,1.30
2022-09-12T23:02:38.017Z,1.25
2022-09-12T23:05:06.026Z,1.30
2022-09-12T23:07:34.073Z,1.17
2022-09-12T23:10:02.075Z,1.10
2022-09-12T23:12:29.741Z,1.25
2022-09-12T23:14:58.659Z,1.20
2022-09-12T23:17:26.336Z,1.08
2022-09-12T23:19:53.951Z,1.13
2022-09-12T23:22:21.844Z,1.25
2022-09-12T23:24:49.413Z,1.10
2022-09-12T23:27:17.123Z,1.10
2022-09-12T23:29:44.721Z,1.10
2022-09-12T23:32:13.557Z,1.40
2022-09-12T23:34:41.091Z,1.48
2022-09-12T23:37:08.703Z,1.13
2022-09-12T23:39:36.289Z,1.17
2022-09-12T23:42:03.876Z,1.10
2022-09-12T23:44:31.478Z,1.10
2022-09-12T23:46:59.229Z,1.10
2022-09-12T23:49:28.197Z,1.05
2022-09-12T23:51:55.762Z,1.00
2022-09-12T23:54:25.020Z,1.20
2022-09-12T23:56:52.958Z,1.00
2022-09-12T23:59:20.649Z,1.15
